createdAt,value
2023-05-09T07:39:50.509Z,0.60
2023-05-09T07:42:18.118Z,0.60
2023-05-09T07:44:45.817Z,0.60
2023-05-09T07:47:12.749Z,0.50
2023-05-09T07:49:40.897Z,0.50
2023-05-09T07:52:07.845Z,0.50
2023-05-09T07:54:34.847Z,0.65
2023-05-09T07:57:01.781Z,0.38
2023-05-09T07:59:28.688Z,0.95
2023-05-09T08:01:55.964Z,0.35
2023-05-09T08:04:23.099Z,0.60
2023-05-09T08:06:50.161Z,1.13
2023-05-09T08:09:17.325Z,0.40
2023-05-09T08:11:45.341Z,0.50
2023-05-09T08:14:12.807Z,0.43
2023-05-09T08:16:40.714Z,0.30
2023-05-09T08:19:07.620Z,0.40
2023-05-09T08:21:36.232Z,0.43
2023-05-09T08:24:03.253Z,0.40
2023-05-09T08:26:30.240Z,0.40
2023-05-09T08:28:57.321Z,0.47
2023-05-09T08:31:24.329Z,0.50
2023-05-09T08:33:51.265Z,0.30
2023-05-09T08:36:18.191Z,0.38
2023-05-09T08:38:45.164Z,0.30
2023-05-09T08:41:12.120Z,0.30
2023-05-09T08:43:41.100Z,0.30
2023-05-09T08:46:10.853Z,0.20
2023-05-09T08:48:39.099Z,0.20
2023-05-09T08:51:07.138Z,0.57
2023-05-09T08:53:34.934Z,0.30
2023-05-09T08:56:04.254Z,0.30
2023-05-09T08:58:32.258Z,0.20
2023-05-09T09:00:59.814Z,0.20
2023-05-09T09:03:27.406Z,0.30
2023-05-09T09:05:55.232Z,0.45
2023-05-09T09:08:23.429Z,0.10
2023-05-09T09:10:50.624Z,0.50
2023-05-09T09:13:18.478Z,0.20
2023-05-09T09:15:47.238Z,0.20
2023-05-09T09:18:22.702Z,0.30
2023-05-09T09:20:58.405Z,0.20
2023-05-09T09:23:27.375Z,0.20
2023-05-09T09:26:13.715Z,0.20
2023-05-09T09:28:40.981Z,0.20
2023-05-09T09:31:25.329Z,0.30
2023-05-09T09:33:52.483Z,0.10
2023-05-09T09:36:36.905Z,0.17
2023-05-09T09:39:05.723Z,0.20
2023-05-09T09:41:37.848Z,0.15
2023-05-09T09:44:09.644Z,0.10
2023-05-09T09:46:51.862Z,0.10
2023-05-09T09:49:23.995Z,0.10
2023-05-09T09:51:52.778Z,0.20
2023-05-09T09:54:20.058Z,0.10
2023-05-09T09:56:49.365Z,0.20
2023-05-09T10:02:07.036Z,0.40
2023-05-09T10:04:37.212Z,0.32
2023-05-09T10:07:06.703Z,0.40
2023-05-09T10:09:36.077Z,0.30
2023-05-09T10:12:07.637Z,0.25
2023-05-09T10:14:36.845Z,0.43
2023-05-09T10:19:33.439Z,0.32
2023-05-09T10:22:06.288Z,0.38
2023-05-09T10:24:37.829Z,0.40
2023-05-09T10:27:09.854Z,0.47
2023-05-09T10:29:41.675Z,0.45
2023-05-09T10:32:32.450Z,0.38
2023-05-09T10:35:05.401Z,0.40
2023-05-09T10:37:33.423Z,0.43
2023-05-09T10:40:03.119Z,0.50
2023-05-09T10:42:30.820Z,0.40
2023-05-09T10:44:58.432Z,0.40
2023-05-09T10:47:29.943Z,0.52
2023-05-09T10:49:58.196Z,0.75
2023-05-09T10:52:25.106Z,0.30
2023-05-09T10:55:04.060Z,0.55
2023-05-09T11:00:00.740Z,0.47
2023-05-09T11:02:32.696Z,0.57
2023-05-09T11:05:20.408Z,0.50
2023-05-09T11:07:47.369Z,0.70
2023-05-09T11:10:18.493Z,0.90
2023-05-09T11:12:59.476Z,0.70
2023-05-09T11:15:30.245Z,0.80
2023-05-09T11:18:09.912Z,0.60
2023-05-09T11:20:43.786Z,1.20
2023-05-09T11:23:12.094Z,1.02
2023-05-09T11:25:42.540Z,1.02
2023-05-09T11:28:10.148Z,0.90
2023-05-09T11:30:44.040Z,1.63
2023-05-09T11:33:24.348Z,1.40
2023-05-09T11:36:19.368Z,1.10
2023-05-09T11:38:49.214Z,1.20
2023-05-09T11:41:16.353Z,1.30
2023-05-09T11:43:45.064Z,0.85
2023-05-09T11:46:13.079Z,1.00
2023-05-09T11:48:42.486Z,0.90
2023-05-09T11:51:18.375Z,1.08
2023-05-09T11:53:47.256Z,0.93
2023-05-09T11:56:15.722Z,1.30
2023-05-09T11:58:44.653Z,1.00
2023-05-09T12:01:13.100Z,1.27
2023-05-09T12:03:45.509Z,1.17
2023-05-09T12:06:20.136Z,1.13
2023-05-09T12:08:47.412Z,1.63
2023-05-09T12:11:15.381Z,1.60
2023-05-09T12:13:49.451Z,1.50
2023-05-09T12:16:17.884Z,1.80
2023-05-09T12:18:49.062Z,1.50
2023-05-09T12:21:17.543Z,1.55
2023-05-09T12:23:45.290Z,1.70
2023-05-09T12:26:12.635Z,2.00
2023-05-09T12:28:40.093Z,2.35
2023-05-09T12:31:08.096Z,2.08
2023-05-09T12:33:37.612Z,2.35
2023-05-09T12:36:07.789Z,2.22
2023-05-09T12:38:34.806Z,3.15
2023-05-09T12:41:10.639Z,2.65
2023-05-09T12:43:40.320Z,2.60
2023-05-09T12:46:08.920Z,2.00
2023-05-09T12:48:39.368Z,2.47
2023-05-09T12:51:07.511Z,3.67
2023-05-09T12:53:41.633Z,2.97
2023-05-09T12:56:17.373Z,3.05
2023-05-09T12:58:52.524Z,2.40
2023-05-09T13:01:21.570Z,2.80
2023-05-09T13:03:53.501Z,2.95
2023-05-09T13:06:21.323Z,2.50
2023-05-09T13:09:01.842Z,2.90
2023-05-09T13:11:30.036Z,2.55
2023-05-09T13:13:57.337Z,2.80
2023-05-09T13:16:24.502Z,2.75
2023-05-09T13:18:51.526Z,2.78
2023-05-09T13:21:18.524Z,2.10
2023-05-09T13:23:46.059Z,2.10
2023-05-09T13:26:13.142Z,2.40
2023-05-09T13:28:40.087Z,3.97
2023-05-09T13:31:08.211Z,2.50
2023-05-09T13:33:35.381Z,2.25
2023-05-09T13:36:02.481Z,2.45
2023-05-09T13:38:31.225Z,2.40
2023-05-09T13:40:58.600Z,2.90
2023-05-09T13:43:25.670Z,2.97
2023-05-09T13:45:52.705Z,2.83
2023-05-09T13:48:19.742Z,3.33
2023-05-09T13:50:47.101Z,2.95
2023-05-09T13:53:14.078Z,3.08
2023-05-09T13:55:40.998Z,3.85
2023-05-09T13:58:07.920Z,2.65
2023-05-09T14:00:35.211Z,2.60
2023-05-09T14:03:03.081Z,2.15
2023-05-09T14:05:33.265Z,2.25
2023-05-09T14:08:01.814Z,2.60
2023-05-09T14:10:29.227Z,2.83
2023-05-09T14:12:56.644Z,2.92
2023-05-09T14:15:23.619Z,2.55
2023-05-09T14:17:50.691Z,2.00
2023-05-09T14:20:17.994Z,2.20
2023-05-09T14:22:45.249Z,1.73
2023-05-09T14:25:12.762Z,2.95
2023-05-09T14:27:39.748Z,1.88
2023-05-09T14:30:07.371Z,1.58
2023-05-09T14:32:34.353Z,1.60
2023-05-09T14:35:01.389Z,1.38
2023-05-09T14:37:29.654Z,1.38
2023-05-09T14:39:56.666Z,1.60
2023-05-09T14:42:23.766Z,1.13
2023-05-09T14:44:50.835Z,0.95
2023-05-09T14:47:17.941Z,0.90
2023-05-09T14:49:45.568Z,0.90
2023-05-09T14:52:13.966Z,2.53
2023-05-09T14:54:41.387Z,0.90
2023-05-09T14:57:08.704Z,0.77
2023-05-09T15:06:17.954Z,0.55
2023-05-09T15:08:44.896Z,0.75
2023-05-09T15:16:17.587Z,1.38
2023-05-09T15:42:16.675Z,0.70
